createdAt,value
2023-05-21T00:02:18.758Z,17.30
2023-05-21T00:04:46.462Z,17.47
2023-05-21T00:07:15.271Z,18.87
2023-05-21T00:09:42.486Z,17.70
2023-05-21T00:12:09.814Z,18.40
2023-05-21T00:14:37.300Z,18.17
2023-05-21T00:17:04.515Z,18.37
2023-05-21T00:19:33.709Z,18.90
2023-05-21T00:22:04.600Z,18.33
2023-05-21T00:24:31.765Z,17.50
2023-05-21T00:26:58.971Z,17.73
2023-05-21T00:29:27.743Z,18.27
2023-05-21T00:31:55.903Z,18.27
2023-05-21T00:34:23.237Z,17.77
2023-05-21T00:36:50.448Z,16.77
2023-05-21T00:39:17.612Z,18.07
2023-05-21T00:41:46.655Z,18.17
2023-05-21T00:44:14.060Z,17.90
2023-05-21T00:46:41.886Z,18.43
2023-05-21T00:49:09.042Z,17.10
2023-05-21T00:51:36.210Z,17.40
2023-05-21T00:54:03.639Z,17.43
2023-05-21T00:56:31.197Z,17.67
2023-05-21T00:58:58.587Z,17.33
2023-05-21T01:01:26.111Z,18.13
2023-05-21T01:03:54.375Z,17.30
2023-05-21T01:06:21.642Z,18.03
2023-05-21T01:08:48.799Z,17.53
2023-05-21T01:11:16.138Z,16.93
2023-05-21T01:13:43.844Z,17.43
2023-05-21T01:16:13.431Z,17.87
2023-05-21T01:18:43.522Z,17.70
2023-05-21T01:21:10.886Z,17.97
2023-05-21T01:23:38.056Z,17.07
2023-05-21T01:26:05.236Z,18.47
2023-05-21T01:28:34.477Z,18.00
2023-05-21T01:31:05.967Z,18.03
2023-05-21T01:33:49.657Z,18.03
2023-05-21T01:36:24.189Z,17.43
2023-05-21T01:38:58.624Z,18.57
2023-05-21T01:41:26.351Z,17.87
2023-05-21T01:43:54.145Z,18.40
2023-05-21T01:46:23.940Z,18.33
2023-05-21T01:48:51.915Z,18.83
2023-05-21T01:51:19.632Z,18.20
2023-05-21T01:53:47.036Z,18.07
2023-05-21T01:56:15.895Z,17.67
2023-05-21T01:58:44.041Z,18.47
2023-05-21T02:01:12.030Z,18.40
2023-05-21T02:03:39.269Z,18.00
2023-05-21T02:06:06.490Z,17.80
2023-05-21T02:08:33.686Z,17.97
2023-05-21T02:11:00.837Z,17.80
2023-05-21T02:13:29.200Z,17.00
2023-05-21T02:15:56.521Z,17.90
2023-05-21T02:18:23.775Z,17.33
2023-05-21T02:20:50.964Z,16.73
2023-05-21T02:23:18.196Z,17.60
2023-05-21T02:25:45.605Z,17.03
2023-05-21T02:28:12.843Z,17.47
2023-05-21T02:30:40.015Z,17.93
2023-05-21T02:33:09.041Z,18.20
2023-05-21T02:35:36.677Z,17.23
2023-05-21T02:38:04.099Z,17.57
2023-05-21T02:40:32.807Z,17.13
2023-05-21T02:42:59.997Z,17.87
2023-05-21T02:45:27.204Z,17.70
2023-05-21T02:47:54.412Z,18.20
2023-05-21T02:50:22.815Z,17.63
2023-05-21T02:52:50.060Z,16.97
2023-05-21T02:55:17.195Z,16.87
2023-05-21T02:57:44.329Z,17.87
2023-05-21T03:00:11.822Z,16.50
2023-05-21T03:02:39.026Z,16.80
2023-05-21T03:05:06.555Z,17.00
2023-05-21T03:07:33.761Z,16.77
2023-05-21T03:10:00.912Z,16.97
2023-05-21T03:12:28.065Z,16.73
2023-05-21T03:14:56.386Z,17.43
2023-05-21T03:17:23.602Z,17.27
2023-05-21T03:19:50.802Z,17.10
2023-05-21T03:22:17.983Z,17.43
2023-05-21T03:24:45.340Z,16.40
2023-05-21T03:27:12.529Z,17.47
2023-05-21T03:29:40.023Z,17.13
2023-05-21T03:32:07.443Z,17.70
2023-05-21T03:34:34.637Z,17.10
2023-05-21T03:37:01.808Z,16.73
2023-05-21T03:39:29.035Z,17.00
2023-05-21T03:41:56.219Z,16.17
2023-05-21T03:44:23.361Z,17.00
2023-05-21T03:46:50.526Z,16.97
2023-05-21T03:49:17.679Z,16.20
2023-05-21T03:51:44.819Z,17.50
2023-05-21T03:54:11.945Z,17.13
2023-05-21T03:56:39.150Z,18.17
2023-05-21T03:59:06.329Z,17.97
2023-05-21T04:01:33.485Z,16.30
2023-05-21T04:04:00.849Z,16.80
2023-05-21T04:06:28.153Z,17.83
2023-05-21T04:08:55.430Z,17.30
2023-05-21T04:11:22.751Z,17.17
2023-05-21T04:13:49.879Z,17.10
2023-05-21T04:16:19.176Z,17.17
2023-05-21T04:18:47.293Z,16.63
2023-05-21T04:21:14.604Z,16.83
2023-05-21T04:23:41.765Z,16.53
2023-05-21T04:26:09.001Z,17.23
2023-05-21T04:28:36.389Z,17.40
2023-05-21T04:31:03.627Z,16.33
2023-05-21T04:33:30.809Z,16.47
2023-05-21T04:35:58.302Z,16.00
2023-05-21T04:38:25.877Z,16.30
2023-05-21T04:40:53.216Z,15.83
2023-05-21T04:43:26.932Z,14.87
2023-05-21T04:45:57.361Z,16.00
2023-05-21T04:48:28.058Z,15.97
2023-05-21T04:50:56.770Z,15.17
2023-05-21T04:53:26.021Z,15.07
2023-05-21T04:55:53.472Z,14.77
2023-05-21T04:58:20.703Z,14.50
2023-05-21T05:00:50.681Z,14.67
2023-05-21T05:03:18.468Z,14.53
2023-05-21T05:05:45.957Z,14.33
2023-05-21T05:08:15.480Z,13.73
2023-05-21T05:10:43.270Z,13.07
2023-05-21T05:13:10.542Z,12.98
2023-05-21T05:15:37.815Z,12.45
2023-05-21T05:18:05.330Z,12.95
2023-05-21T05:20:32.495Z,12.27
2023-05-21T05:22:59.688Z,12.82
2023-05-21T05:25:27.490Z,12.32
2023-05-21T05:27:54.621Z,12.18
2023-05-21T05:30:21.801Z,12.38
2023-05-21T05:32:49.061Z,12.25
2023-05-21T05:35:16.227Z,12.50
2023-05-21T05:37:43.352Z,11.93
2023-05-21T05:40:10.984Z,12.30
2023-05-21T05:42:38.141Z,12.13
2023-05-21T05:45:05.490Z,12.50
2023-05-21T05:47:32.694Z,11.93
2023-05-21T05:49:59.876Z,12.48
2023-05-21T05:52:27.066Z,12.75
2023-05-21T05:54:54.192Z,11.52
2023-05-21T05:57:21.355Z,12.35
2023-05-21T05:59:48.522Z,11.52
2023-05-21T06:02:15.937Z,11.13
2023-05-21T06:04:43.204Z,11.82
2023-05-21T06:07:10.365Z,11.00
2023-05-21T06:09:38.839Z,10.80
2023-05-21T06:12:12.260Z,10.77
2023-05-21T06:14:43.789Z,10.57
2023-05-21T06:17:12.605Z,10.70
2023-05-21T06:19:40.438Z,10.45
2023-05-21T06:22:07.579Z,10.70
2023-05-21T06:24:34.738Z,10.65
2023-05-21T06:27:02.137Z,10.73
2023-05-21T06:29:29.310Z,10.45
2023-05-21T06:31:56.701Z,9.95
2023-05-21T06:34:23.864Z,10.18
2023-05-21T06:36:51.493Z,9.82
2023-05-21T06:39:18.652Z,10.45
2023-05-21T06:41:45.878Z,10.25
2023-05-21T06:44:13.083Z,9.80
2023-05-21T06:46:40.431Z,10.45
2023-05-21T06:49:07.944Z,10.00
2023-05-21T06:51:35.123Z,10.13
2023-05-21T06:54:02.261Z,10.30
2023-05-21T06:56:29.510Z,10.27
2023-05-21T06:58:56.836Z,10.63
2023-05-21T07:01:24.469Z,10.55
2023-05-21T07:03:51.706Z,10.68
2023-05-21T07:06:18.892Z,10.40
2023-05-21T07:08:46.114Z,11.07
2023-05-21T07:11:13.223Z,10.70
2023-05-21T07:13:40.366Z,10.70
2023-05-21T07:16:07.739Z,10.27
2023-05-21T07:18:34.886Z,10.52
2023-05-21T07:21:02.001Z,9.98
2023-05-21T07:23:29.143Z,10.98
2023-05-21T07:25:56.278Z,10.35
2023-05-21T07:28:23.449Z,9.73
2023-05-21T07:30:50.614Z,9.95
2023-05-21T07:33:20.581Z,9.57
2023-05-21T07:35:47.771Z,10.00
2023-05-21T07:38:14.916Z,9.38
2023-05-21T07:40:42.072Z,9.30
2023-05-21T07:43:09.264Z,9.52
2023-05-21T07:45:36.668Z,9.85
2023-05-21T07:48:04.091Z,9.50
2023-05-21T07:50:31.326Z,9.18
2023-05-21T07:52:58.541Z,9.52
2023-05-21T07:55:25.789Z,9.05
2023-05-21T07:57:52.946Z,10.15
2023-05-21T08:00:20.356Z,8.90
2023-05-21T08:02:47.652Z,9.07
2023-05-21T08:05:16.414Z,9.48
2023-05-21T08:07:43.715Z,9.13
2023-05-21T08:10:11.009Z,9.13
2023-05-21T08:12:38.126Z,9.13
2023-05-21T08:15:05.459Z,8.82
2023-05-21T08:17:32.691Z,9.25
2023-05-21T08:19:59.838Z,9.43
2023-05-21T08:22:26.975Z,8.85
2023-05-21T08:24:54.118Z,8.63
2023-05-21T08:27:21.359Z,8.68
2023-05-21T08:29:48.526Z,8.90
2023-05-21T08:32:15.752Z,8.95
2023-05-21T08:34:42.935Z,8.55
2023-05-21T08:37:10.080Z,8.70
2023-05-21T08:39:37.295Z,9.32
2023-05-21T08:42:10.591Z,8.48
2023-05-21T08:44:38.648Z,9.18
2023-05-21T08:47:08.317Z,8.70
2023-05-21T08:49:35.997Z,8.77
2023-05-21T08:52:03.750Z,8.88
2023-05-21T08:54:31.085Z,8.90
2023-05-21T08:56:59.048Z,9.02
2023-05-21T08:59:26.367Z,8.75
2023-05-21T09:01:53.862Z,8.77
2023-05-21T09:04:22.039Z,9.00
2023-05-21T09:06:49.337Z,8.40
2023-05-21T09:09:33.483Z,8.63
2023-05-21T09:12:00.965Z,8.75
2023-05-21T09:14:28.585Z,8.98
2023-05-21T09:16:55.796Z,8.20
2023-05-21T09:19:23.574Z,7.57
2023-05-21T09:21:53.854Z,8.27
2023-05-21T09:24:23.969Z,8.40
2023-05-21T09:26:51.358Z,8.57
2023-05-21T09:29:19.008Z,9.15
2023-05-21T09:31:46.405Z,9.30
2023-05-21T09:34:17.070Z,8.00
2023-05-21T09:36:44.303Z,8.30
2023-05-21T09:39:16.378Z,8.30
2023-05-21T09:41:43.800Z,8.35
2023-05-21T09:44:11.242Z,8.00
2023-05-21T09:46:42.152Z,9.00
2023-05-21T09:49:23.537Z,8.20
2023-05-21T09:51:50.885Z,7.88
2023-05-21T09:54:18.020Z,8.32
2023-05-21T09:56:45.259Z,7.82
2023-05-21T09:59:12.397Z,8.13
2023-05-21T10:01:39.569Z,8.40
2023-05-21T10:04:10.514Z,8.20
2023-05-21T10:06:48.077Z,7.70
2023-05-21T10:09:16.008Z,8.10
2023-05-21T10:11:45.712Z,7.22
2023-05-21T10:14:17.190Z,8.88
2023-05-21T10:16:45.037Z,8.40
2023-05-21T10:19:12.742Z,8.40
2023-05-21T10:21:40.664Z,8.55
2023-05-21T10:24:07.979Z,7.63
2023-05-21T10:26:35.234Z,7.93
2023-05-21T10:29:03.022Z,8.13
2023-05-21T10:31:30.296Z,7.95
2023-05-21T10:33:57.936Z,7.28
2023-05-21T10:36:27.934Z,7.93
2023-05-21T10:38:55.582Z,7.50
2023-05-21T10:41:23.674Z,7.60
2023-05-21T10:43:56.651Z,7.63
2023-05-21T10:46:32.860Z,7.88
2023-05-21T10:49:22.656Z,7.43
2023-05-21T10:52:00.641Z,7.28
2023-05-21T10:54:36.972Z,7.22
2023-05-21T10:57:13.048Z,7.20
2023-05-21T10:59:43.914Z,7.68
2023-05-21T11:02:12.300Z,7.65
2023-05-21T11:04:40.114Z,7.97
2023-05-21T11:07:07.451Z,7.80
2023-05-21T11:09:34.597Z,7.88
2023-05-21T11:12:03.085Z,7.88
2023-05-21T11:14:40.497Z,7.22
2023-05-21T11:17:14.518Z,7.68
2023-05-21T11:19:43.340Z,7.65
2023-05-21T11:22:10.682Z,7.20
2023-05-21T11:24:39.642Z,7.90
2023-05-21T11:27:07.093Z,7.65
2023-05-21T11:29:41.494Z,7.72
2023-05-21T11:32:09.344Z,7.55
2023-05-21T11:34:45.812Z,7.40
2023-05-21T11:37:26.836Z,7.90
2023-05-21T11:39:54.861Z,7.30
2023-05-21T11:42:28.442Z,7.57
2023-05-21T11:45:00.435Z,7.20
2023-05-21T11:47:28.414Z,7.18
2023-05-21T11:49:57.053Z,7.22
2023-05-21T11:52:25.232Z,7.35
2023-05-21T11:54:55.529Z,7.93
2023-05-21T11:57:23.040Z,7.80
2023-05-21T11:59:53.644Z,7.90
2023-05-21T12:02:21.757Z,7.63
2023-05-21T12:04:49.970Z,7.35
2023-05-21T12:07:19.141Z,7.40
2023-05-21T12:09:47.716Z,7.47
2023-05-21T12:12:16.191Z,7.82
2023-05-21T12:14:50.280Z,7.88
2023-05-21T12:17:18.193Z,7.63
2023-05-21T12:19:46.046Z,7.70
2023-05-21T12:22:13.256Z,7.15
2023-05-21T12:24:40.416Z,7.35
2023-05-21T12:27:13.192Z,7.97
2023-05-21T12:29:42.410Z,7.80
2023-05-21T12:32:10.705Z,7.60
2023-05-21T12:34:48.650Z,7.20
2023-05-21T12:37:17.268Z,7.50
2023-05-21T12:39:45.350Z,7.70
2023-05-21T12:42:12.767Z,7.80
2023-05-21T12:44:46.961Z,8.13
2023-05-21T12:47:14.549Z,7.72
2023-05-21T12:49:42.888Z,7.55
2023-05-21T12:52:10.898Z,7.30
2023-05-21T12:54:43.190Z,7.03
2023-05-21T12:57:17.244Z,7.10
2023-05-21T12:59:57.517Z,7.68
2023-05-21T13:02:24.874Z,7.13
2023-05-21T13:04:55.809Z,7.93
2023-05-21T13:07:23.007Z,7.22
2023-05-21T13:09:53.033Z,7.10
2023-05-21T13:12:24.179Z,7.28
2023-05-21T13:14:51.935Z,7.00
2023-05-21T13:17:19.666Z,6.45
2023-05-21T13:20:09.883Z,6.82
2023-05-21T13:22:43.710Z,6.72
2023-05-21T13:25:11.576Z,6.95
2023-05-21T13:27:42.034Z,6.18
2023-05-21T13:30:11.371Z,6.57
2023-05-21T13:32:39.210Z,6.38
2023-05-21T13:35:06.795Z,6.20
2023-05-21T13:37:36.166Z,6.63
2023-05-21T13:40:07.224Z,5.80
2023-05-21T13:42:35.438Z,6.50
2023-05-21T13:45:02.850Z,6.68
2023-05-21T13:47:30.064Z,6.57
2023-05-21T13:49:57.219Z,6.78
2023-05-21T13:52:24.361Z,6.65
2023-05-21T13:54:51.587Z,6.88
2023-05-21T13:57:18.761Z,6.60
2023-05-21T13:59:45.919Z,6.88
2023-05-21T14:02:13.113Z,7.68
2023-05-21T14:04:40.342Z,7.45
2023-05-21T14:07:07.969Z,7.55
2023-05-21T14:09:35.719Z,7.13
2023-05-21T14:12:06.247Z,7.07
2023-05-21T14:14:33.846Z,7.22
2023-05-21T14:17:01.119Z,7.28
2023-05-21T14:19:30.169Z,7.45
2023-05-21T14:21:57.713Z,7.00
2023-05-21T14:24:24.841Z,6.90
2023-05-21T14:26:51.990Z,6.43
2023-05-21T14:29:19.156Z,7.15
2023-05-21T14:31:46.494Z,6.82
2023-05-21T14:34:13.765Z,6.93
2023-05-21T14:36:41.018Z,7.13
2023-05-21T14:39:08.176Z,7.32
2023-05-21T14:41:38.940Z,6.70
2023-05-21T14:44:06.149Z,6.82
2023-05-21T14:46:33.618Z,7.47
2023-05-21T14:49:00.956Z,7.45
2023-05-21T14:51:28.168Z,6.65
2023-05-21T14:53:57.651Z,7.07
2023-05-21T14:56:27.307Z,7.82
2023-05-21T14:58:54.732Z,7.60
2023-05-21T15:01:22.064Z,7.50
2023-05-21T15:03:49.511Z,7.75
2023-05-21T15:06:16.854Z,7.15
2023-05-21T15:08:44.059Z,7.38
2023-05-21T15:11:11.590Z,7.20
2023-05-21T15:13:38.998Z,7.13
2023-05-21T15:16:06.492Z,7.35
2023-05-21T15:18:33.951Z,6.53
2023-05-21T15:21:01.253Z,6.95
2023-05-21T15:23:28.573Z,7.65
2023-05-21T15:25:55.891Z,7.13
2023-05-21T15:28:23.268Z,7.35
2023-05-21T15:30:50.500Z,7.95
2023-05-21T15:33:17.769Z,7.40
2023-05-21T15:35:45.347Z,7.00
2023-05-21T15:38:12.847Z,7.07
2023-05-21T15:40:44.316Z,6.20
2023-05-21T15:43:11.508Z,6.43
2023-05-21T15:45:39.264Z,7.00
2023-05-21T15:48:07.087Z,6.65
2023-05-21T15:50:35.782Z,7.03
2023-05-21T15:53:04.282Z,6.60
2023-05-21T15:55:34.867Z,7.07
2023-05-21T15:58:03.846Z,7.00
2023-05-21T16:00:31.005Z,7.53
2023-05-21T16:02:58.407Z,6.70
2023-05-21T16:05:26.416Z,7.22
2023-05-21T16:07:53.604Z,6.45
2023-05-21T16:10:21.762Z,7.45
2023-05-21T16:12:48.914Z,6.68
2023-05-21T16:15:16.103Z,7.38
2023-05-21T16:17:43.345Z,8.05
2023-05-21T16:20:10.740Z,7.20
2023-05-21T16:22:37.914Z,6.60
2023-05-21T16:25:05.250Z,6.80
2023-05-21T16:27:32.483Z,6.40
2023-05-21T16:29:59.876Z,6.82
2023-05-21T16:32:28.553Z,6.97
2023-05-21T16:34:55.783Z,6.80
2023-05-21T16:37:22.925Z,7.18
2023-05-21T16:39:50.164Z,6.82
2023-05-21T16:42:17.378Z,7.53
2023-05-21T16:44:44.744Z,7.05
2023-05-21T16:47:11.895Z,6.43
2023-05-21T16:49:39.088Z,6.68
2023-05-21T16:52:06.376Z,7.25
2023-05-21T16:54:34.103Z,6.85
2023-05-21T16:57:01.450Z,6.82
2023-05-21T16:59:29.052Z,7.13
2023-05-21T17:01:56.205Z,6.47
2023-05-21T17:04:23.436Z,6.75
2023-05-21T17:06:50.560Z,6.95
2023-05-21T17:09:18.794Z,7.03
2023-05-21T17:11:46.157Z,7.00
2023-05-21T17:14:17.492Z,6.95
2023-05-21T17:16:50.744Z,6.72
2023-05-21T17:19:17.971Z,7.65
2023-05-21T17:21:45.253Z,7.45
2023-05-21T17:24:12.455Z,7.50
2023-05-21T17:26:39.604Z,7.82
2023-05-21T17:29:06.761Z,8.20
2023-05-21T17:31:34.348Z,8.07
2023-05-21T17:34:01.599Z,8.20
2023-05-21T17:36:28.777Z,8.23
2023-05-21T17:38:55.968Z,8.23
2023-05-21T17:41:25.241Z,7.97
2023-05-21T17:43:52.529Z,8.38
2023-05-21T17:46:19.839Z,7.88
2023-05-21T17:48:47.096Z,7.72
2023-05-21T17:51:14.305Z,7.90
2023-05-21T17:53:41.654Z,8.13
2023-05-21T17:56:10.462Z,8.10
2023-05-21T17:58:37.713Z,8.40
2023-05-21T18:01:05.075Z,7.90
2023-05-21T18:03:32.414Z,8.70
2023-05-21T18:05:59.642Z,7.82
2023-05-21T18:08:26.998Z,8.13
2023-05-21T18:10:54.174Z,8.20
2023-05-21T18:13:21.379Z,8.13
2023-05-21T18:15:48.526Z,8.23
2023-05-21T18:18:20.624Z,8.40
2023-05-21T18:20:49.006Z,8.07
2023-05-21T18:23:16.394Z,8.23
2023-05-21T18:25:43.570Z,8.38
2023-05-21T18:28:10.953Z,8.50
2023-05-21T18:30:38.423Z,8.80
2023-05-21T18:33:05.942Z,7.93
2023-05-21T18:35:33.176Z,8.38
2023-05-21T18:38:00.319Z,8.40
2023-05-21T18:40:30.618Z,8.90
2023-05-21T18:42:58.008Z,8.63
2023-05-21T18:45:25.209Z,8.60
2023-05-21T18:47:52.410Z,9.30
2023-05-21T18:50:20.483Z,10.63
2023-05-21T18:52:47.729Z,9.90
2023-05-21T18:55:15.117Z,9.00
2023-05-21T18:57:42.257Z,8.68
2023-05-21T19:00:11.431Z,8.70
2023-05-21T19:02:38.730Z,8.88
2023-05-21T19:05:06.609Z,8.55
2023-05-21T19:07:34.117Z,8.93
2023-05-21T19:10:01.316Z,8.82
2023-05-21T19:12:31.242Z,8.18
2023-05-21T19:14:59.486Z,8.82
2023-05-21T19:17:26.717Z,8.80
2023-05-21T19:19:57.523Z,8.20
2023-05-21T19:22:25.133Z,8.73
2023-05-21T19:24:52.485Z,9.35
2023-05-21T19:27:19.876Z,9.30
2023-05-21T19:29:47.447Z,9.15
2023-05-21T19:32:15.904Z,9.20
2023-05-21T19:34:43.531Z,9.18
2023-05-21T19:37:10.793Z,8.98
2023-05-21T19:39:38.747Z,9.20
2023-05-21T19:42:06.386Z,9.38
2023-05-21T19:44:33.571Z,9.25
2023-05-21T19:47:03.865Z,8.77
2023-05-21T19:49:30.999Z,9.23
2023-05-21T19:51:58.334Z,9.45
2023-05-21T19:54:25.697Z,9.25
2023-05-21T19:56:52.893Z,8.93
2023-05-21T19:59:20.586Z,9.20
2023-05-21T20:01:47.872Z,9.13
2023-05-21T20:04:15.324Z,8.98
2023-05-21T20:06:42.514Z,9.90
2023-05-21T20:09:11.921Z,9.20
2023-05-21T20:11:39.093Z,9.93
2023-05-21T20:14:06.459Z,9.73
2023-05-21T20:16:33.706Z,10.25
2023-05-21T20:19:01.694Z,10.20
2023-05-21T20:21:31.517Z,10.35
2023-05-21T20:23:58.753Z,10.15
2023-05-21T20:26:26.400Z,10.32
2023-05-21T20:28:54.023Z,9.88
2023-05-21T20:31:21.774Z,10.20
2023-05-21T20:33:52.280Z,10.85
2023-05-21T20:36:21.194Z,10.23
2023-05-21T20:38:48.560Z,11.18
2023-05-21T20:41:15.731Z,10.60
2023-05-21T20:43:45.347Z,10.55
2023-05-21T20:46:12.565Z,10.45
2023-05-21T20:48:39.763Z,10.13
2023-05-21T20:51:06.988Z,10.57
2023-05-21T20:53:34.126Z,10.88
2023-05-21T20:56:01.720Z,10.68
2023-05-21T20:58:29.003Z,11.20
2023-05-21T21:00:56.145Z,10.32
2023-05-21T21:03:23.621Z,10.38
2023-05-21T21:05:50.907Z,10.98
2023-05-21T21:08:18.124Z,10.27
2023-05-21T21:10:46.875Z,11.07
2023-05-21T21:13:14.509Z,11.38
2023-05-21T21:15:43.799Z,10.75
2023-05-21T21:18:12.552Z,12.02
2023-05-21T21:20:41.351Z,11.18
2023-05-21T21:23:08.881Z,11.57
2023-05-21T21:25:36.260Z,11.70
2023-05-21T21:28:03.461Z,11.38
2023-05-21T21:30:30.842Z,11.43
2023-05-21T21:32:58.147Z,11.48
2023-05-21T21:35:25.453Z,12.32
2023-05-21T21:37:52.640Z,12.63
2023-05-21T21:40:19.800Z,12.98
2023-05-21T21:42:47.027Z,12.45
2023-05-21T21:45:14.161Z,13.47
2023-05-21T21:47:41.395Z,12.23
2023-05-21T21:50:08.825Z,11.90
2023-05-21T21:52:39.958Z,12.40
2023-05-21T21:55:10.823Z,12.27
2023-05-21T21:57:39.137Z,13.00
2023-05-21T22:00:11.299Z,12.23
2023-05-21T22:02:40.144Z,12.07
2023-05-21T22:05:08.645Z,11.98
2023-05-21T22:07:38.605Z,11.70
2023-05-21T22:10:06.345Z,12.60
2023-05-21T22:12:34.002Z,12.60
2023-05-21T22:15:05.733Z,12.60
2023-05-21T22:17:34.102Z,11.57
2023-05-21T22:20:01.864Z,13.15
2023-05-21T22:22:29.171Z,13.13
2023-05-21T22:24:56.472Z,13.52
2023-05-21T22:27:23.644Z,12.93
2023-05-21T22:29:50.853Z,12.70
2023-05-21T22:32:18.099Z,13.33
2023-05-21T22:34:45.270Z,13.73
2023-05-21T22:37:12.525Z,13.43
2023-05-21T22:39:39.718Z,13.43
2023-05-21T22:42:07.078Z,13.27
2023-05-21T22:44:34.338Z,13.83
2023-05-21T22:47:03.769Z,13.03
2023-05-21T22:49:32.721Z,12.90
2023-05-21T22:52:05.228Z,13.00
2023-05-21T22:54:32.810Z,13.77
2023-05-21T22:57:01.130Z,13.17
2023-05-21T22:59:32.711Z,14.13
2023-05-21T23:02:00.018Z,14.20
2023-05-21T23:04:43.126Z,13.80
2023-05-21T23:07:11.318Z,13.87
2023-05-21T23:09:38.565Z,14.17
2023-05-21T23:12:05.974Z,13.63
2023-05-21T23:14:33.271Z,14.00
2023-05-21T23:17:04.515Z,14.43
2023-05-21T23:19:32.977Z,14.50
2023-05-21T23:22:00.557Z,15.07
2023-05-21T23:24:29.507Z,15.57
2023-05-21T23:27:01.790Z,14.43
2023-05-21T23:29:29.548Z,14.77
2023-05-21T23:31:56.883Z,14.90
2023-05-21T23:34:24.828Z,14.47
2023-05-21T23:36:52.318Z,14.30
2023-05-21T23:39:19.497Z,14.73
2023-05-21T23:41:46.671Z,15.17
2023-05-21T23:44:15.361Z,15.07
2023-05-21T23:46:43.799Z,15.23
2023-05-21T23:49:11.626Z,14.93
2023-05-21T23:51:39.094Z,15.53
2023-05-21T23:54:06.705Z,15.47
2023-05-21T23:56:33.882Z,15.07
2023-05-21T23:59:01.021Z,15.37
